createdAt,value
2018-09-03T00:02:20.611Z,21.98
2018-09-03T00:04:50.488Z,21.89
2018-09-03T00:07:20.918Z,21.84
2018-09-03T00:09:50.264Z,21.82
2018-09-03T00:12:20.090Z,21.73
2018-09-03T00:14:52.224Z,21.73
2018-09-03T00:17:22.466Z,21.64
2018-09-03T00:19:52.427Z,21.59
2018-09-03T00:22:26.668Z,21.56
2018-09-03T00:24:58.159Z,21.65
2018-09-03T00:27:32.831Z,21.59
2018-09-03T00:30:05.714Z,21.60
2018-09-03T00:32:41.571Z,21.67
2018-09-03T00:35:15.901Z,21.67
2018-09-03T00:37:52.454Z,21.53
2018-09-03T00:40:27.763Z,21.49
2018-09-03T00:43:07.235Z,21.48
2018-09-03T00:45:43.775Z,21.45
2018-09-03T00:48:13.415Z,21.35
2018-09-03T00:50:43.464Z,21.43
2018-09-03T00:53:12.712Z,21.51
2018-09-03T00:55:43.917Z,21.51
2018-09-03T00:58:15.209Z,21.53
2018-09-03T01:03:26.977Z,21.48
2018-09-03T01:05:56.580Z,21.48
2018-09-03T01:08:33.411Z,21.59
2018-09-03T01:11:04.085Z,21.56
2018-09-03T01:13:34.404Z,21.63
2018-09-03T01:16:05.283Z,21.68
2018-09-03T01:18:43.737Z,21.67
2018-09-03T01:21:13.606Z,21.71
2018-09-03T01:23:43.856Z,21.75
2018-09-03T01:26:13.753Z,21.72
2018-09-03T01:28:45.185Z,21.62
2018-09-03T01:31:19.326Z,21.69
2018-09-03T01:33:51.229Z,21.61
2018-09-03T01:36:23.471Z,21.48
2018-09-03T01:38:53.520Z,21.36
2018-09-03T01:41:23.361Z,21.33
2018-09-03T01:43:54.405Z,21.42
2018-09-03T01:46:27.757Z,21.46
2018-09-03T01:48:59.621Z,21.52
2018-09-03T01:51:29.036Z,21.60
2018-09-03T01:53:58.402Z,21.63
2018-09-03T01:56:30.849Z,21.70
2018-09-03T01:59:01.635Z,21.75
2018-09-03T02:01:34.217Z,21.71
2018-09-03T02:04:05.854Z,21.70
2018-09-03T02:06:39.116Z,21.78
2018-09-03T02:09:11.107Z,21.87
2018-09-03T02:11:42.242Z,21.86
2018-09-03T02:14:12.163Z,21.74
2018-09-03T02:16:41.597Z,21.67
2018-09-03T02:19:12.341Z,21.72
2018-09-03T02:21:42.261Z,21.68
2018-09-03T02:24:11.943Z,21.66
2018-09-03T02:26:42.030Z,21.77
2018-09-03T02:29:11.288Z,21.81
2018-09-03T02:31:41.639Z,21.79
2018-09-03T02:34:11.974Z,21.85
2018-09-03T02:36:41.906Z,21.82
2018-09-03T02:39:12.661Z,21.79
2018-09-03T02:41:43.270Z,21.66
2018-09-03T02:44:12.762Z,21.75
2018-09-03T02:46:42.459Z,21.84
2018-09-03T02:49:12.524Z,21.95
2018-09-03T02:51:48.785Z,22.03
2018-09-03T02:54:20.317Z,22.02
2018-09-03T02:56:49.791Z,22.08
2018-09-03T02:59:25.176Z,22.13
2018-09-03T03:01:58.899Z,22.16
2018-09-03T03:04:31.280Z,22.08
2018-09-03T03:07:02.668Z,22.12
2018-09-03T03:09:32.965Z,22.10
2018-09-03T03:12:02.777Z,21.88
2018-09-03T03:14:32.713Z,22.00
2018-09-03T03:17:04.233Z,22.16
2018-09-03T03:19:34.093Z,22.06
2018-09-03T03:22:04.372Z,22.13
2018-09-03T03:24:33.947Z,22.29
2018-09-03T03:27:03.846Z,22.38
2018-09-03T03:29:33.665Z,22.47
2018-09-03T03:32:03.936Z,22.45
2018-09-03T03:34:33.352Z,22.51
2018-09-03T03:37:02.789Z,22.55
2018-09-03T03:39:32.935Z,22.55
2018-09-03T03:42:02.710Z,22.59
2018-09-03T03:44:31.960Z,22.62
2018-09-03T03:47:01.478Z,22.57
2018-09-03T03:52:13.240Z,22.66
2018-09-03T03:54:42.412Z,22.58
2018-09-03T03:57:12.331Z,22.52
2018-09-03T03:59:42.194Z,22.48
2018-09-03T04:02:12.332Z,22.56
2018-09-03T04:04:42.921Z,22.62
2018-09-03T04:07:13.257Z,22.59
2018-09-03T04:09:42.764Z,22.60
2018-09-03T04:12:12.643Z,22.54
2018-09-03T04:14:42.188Z,22.63
2018-09-03T04:17:11.782Z,22.63
2018-09-03T04:19:41.357Z,22.64
2018-09-03T04:22:15.787Z,22.56
2018-09-03T04:24:45.377Z,22.54
2018-09-03T04:27:15.133Z,22.28
2018-09-03T04:29:44.528Z,22.27
2018-09-03T04:32:15.226Z,22.17
2018-09-03T04:34:45.793Z,22.18
2018-09-03T04:37:15.804Z,22.21
2018-09-03T04:39:45.362Z,22.27
2018-09-03T04:42:15.545Z,22.13
2018-09-03T04:44:45.013Z,22.25
2018-09-03T04:47:14.635Z,22.20
2018-09-03T04:49:44.923Z,22.32
2018-09-03T04:52:25.864Z,22.47
2018-09-03T04:54:56.042Z,22.59
2018-09-03T04:57:27.467Z,22.66
2018-09-03T04:59:56.936Z,22.57
2018-09-03T05:02:26.430Z,22.58
2018-09-03T05:04:56.000Z,22.67
2018-09-03T05:07:27.921Z,22.77
2018-09-03T05:10:01.795Z,22.84
2018-09-03T05:12:36.763Z,22.76
2018-09-03T05:15:07.920Z,22.79
2018-09-03T05:17:39.906Z,22.68
2018-09-03T05:20:09.517Z,22.62
2018-09-03T05:22:39.005Z,22.30
2018-09-03T05:25:08.647Z,22.47
2018-09-03T05:27:39.639Z,22.51
2018-09-03T05:30:21.784Z,22.41
2018-09-03T05:32:51.957Z,22.40
2018-09-03T05:35:36.530Z,22.37
2018-09-03T05:38:09.337Z,22.42
2018-09-03T05:40:38.688Z,22.52
2018-09-03T05:43:08.154Z,22.50
2018-09-03T05:45:37.593Z,22.56
2018-09-03T05:48:09.198Z,22.57
2018-09-03T05:50:39.391Z,22.72
2018-09-03T05:53:24.110Z,22.73
2018-09-03T05:55:55.806Z,22.79
2018-09-03T05:58:28.058Z,22.73
2018-09-03T06:01:06.330Z,22.72
2018-09-03T06:03:37.484Z,22.59
2018-09-03T06:06:13.085Z,22.73
2018-09-03T06:08:44.552Z,22.76
2018-09-03T06:11:17.613Z,22.76
2018-09-03T06:13:50.161Z,22.77
2018-09-03T06:16:21.373Z,22.76
2018-09-03T06:18:55.663Z,22.86
2018-09-03T06:21:31.444Z,22.62
2018-09-03T06:24:03.536Z,23.00
2018-09-03T06:26:33.541Z,22.86
2018-09-03T06:29:03.792Z,22.72
2018-09-03T06:31:46.935Z,22.69
2018-09-03T06:34:18.819Z,22.78
2018-09-03T06:36:48.249Z,22.98
2018-09-03T06:39:25.953Z,22.80
2018-09-03T06:42:07.799Z,22.87
2018-09-03T06:47:29.226Z,22.88
2018-09-03T06:49:59.191Z,22.96
2018-09-03T06:52:30.162Z,22.77
2018-09-03T06:55:03.603Z,22.68
2018-09-03T06:57:35.592Z,22.54
2018-09-03T07:00:21.492Z,22.31
2018-09-03T07:02:55.414Z,22.23
2018-09-03T07:05:25.613Z,22.44
2018-09-03T07:07:55.280Z,22.67
2018-09-03T07:10:26.629Z,22.63
2018-09-03T07:12:57.643Z,22.76
2018-09-03T07:21:09.861Z,22.47
2018-09-03T07:23:51.315Z,22.59
2018-09-03T07:26:23.979Z,22.40
2018-09-03T07:28:55.729Z,22.30
2018-09-03T07:31:27.162Z,22.17
2018-09-03T07:33:58.275Z,22.17
2018-09-03T07:36:27.734Z,22.20
2018-09-03T07:39:04.186Z,22.33
2018-09-03T07:41:34.725Z,22.32
2018-09-03T07:44:06.094Z,22.29
2018-09-03T07:46:37.231Z,22.29
2018-09-03T07:49:19.958Z,22.40
2018-09-03T07:51:50.449Z,22.51
2018-09-03T07:54:24.702Z,22.49
2018-09-03T07:56:56.816Z,22.47
2018-09-03T07:59:26.133Z,22.45
2018-09-03T08:01:55.448Z,22.44
2018-09-03T08:04:25.515Z,22.30
2018-09-03T08:06:56.578Z,22.15
2018-09-03T08:09:29.373Z,22.04
2018-09-03T08:11:59.798Z,21.87
2018-09-03T08:14:31.409Z,21.84
2018-09-03T08:17:05.503Z,21.83
2018-09-03T08:19:41.506Z,21.76
2018-09-03T08:22:18.114Z,21.72
2018-09-03T08:24:48.332Z,21.61
2018-09-03T08:27:18.512Z,21.50
2018-09-03T08:29:58.179Z,21.44
2018-09-03T08:32:28.473Z,21.46
2018-09-03T08:35:03.655Z,21.51
2018-09-03T08:37:38.319Z,21.61
2018-09-03T08:40:11.231Z,21.90
2018-09-03T08:42:43.307Z,22.07
2018-09-03T08:45:20.535Z,22.22
2018-09-03T08:47:50.539Z,22.31
2018-09-03T08:50:22.562Z,22.10
2018-09-03T08:52:54.977Z,22.14
2018-09-03T08:55:28.475Z,22.19
2018-09-03T08:58:14.588Z,22.37
2018-09-03T09:00:48.923Z,22.39
2018-09-03T09:03:24.511Z,22.42
2018-09-03T09:05:56.557Z,22.39
2018-09-03T09:08:29.200Z,22.26
2018-09-03T09:11:00.131Z,22.38
2018-09-03T09:13:37.489Z,22.44
2018-09-03T09:16:08.109Z,22.51
2018-09-03T09:18:38.943Z,22.58
2018-09-03T09:21:08.875Z,22.63
2018-09-03T09:23:42.620Z,22.68
2018-09-03T09:26:14.069Z,22.70
2018-09-03T09:28:47.845Z,22.83
2018-09-03T09:31:18.223Z,22.91
2018-09-03T09:33:59.943Z,23.03
2018-09-03T09:36:32.166Z,23.07
2018-09-03T09:39:15.687Z,23.13
2018-09-03T09:41:51.234Z,23.01
2018-09-03T09:44:20.920Z,23.05
2018-09-03T09:46:50.294Z,23.08
2018-09-03T09:49:22.402Z,23.07
2018-09-03T10:30:58.369Z,24.75
2018-09-03T10:33:33.265Z,24.72
2018-09-03T10:36:04.487Z,24.87
2018-09-03T10:38:38.377Z,24.95
2018-09-03T10:41:09.605Z,24.87
2018-09-03T10:43:41.348Z,24.88
2018-09-03T10:46:17.023Z,24.99
2018-09-03T10:48:46.654Z,24.95
2018-09-03T10:51:25.256Z,24.94
2018-09-03T10:53:57.040Z,24.91
2018-09-03T10:56:33.575Z,25.31
2018-09-03T10:59:03.853Z,25.51
2018-09-03T11:01:35.370Z,25.85
2018-09-03T11:04:07.892Z,26.19
2018-09-03T11:06:44.370Z,26.18
2018-09-03T11:09:14.580Z,26.18
2018-09-03T11:14:39.139Z,25.92
2018-09-03T11:17:10.887Z,26.05
2018-09-03T11:20:04.332Z,26.20
2018-09-03T11:22:35.249Z,26.21
2018-09-03T11:25:10.012Z,26.35
2018-09-03T11:27:40.260Z,26.20
2018-09-03T11:30:15.387Z,26.31
2018-09-03T11:32:54.484Z,26.23
2018-09-03T11:35:24.716Z,25.98
2018-09-03T11:37:54.344Z,26.15
2018-09-03T11:40:27.474Z,26.58
2018-09-03T11:42:56.797Z,26.54
2018-09-03T11:45:27.302Z,26.46
2018-09-03T11:48:08.074Z,26.43
2018-09-03T11:50:38.360Z,26.21
2018-09-03T11:53:08.717Z,26.30
2018-09-03T11:55:44.725Z,26.61
2018-09-03T11:58:16.466Z,26.24
2018-09-03T12:00:47.692Z,25.98
2018-09-03T12:03:18.848Z,25.76
2018-09-03T12:05:49.605Z,25.56
2018-09-03T12:08:26.619Z,25.44
2018-09-03T12:10:57.060Z,25.48
2018-09-03T12:13:26.798Z,25.57
2018-09-03T12:16:33.128Z,25.92
2018-09-03T12:19:06.929Z,26.10
2018-09-03T12:21:36.646Z,26.22
2018-09-03T12:24:07.009Z,26.61
2018-09-03T12:26:39.158Z,27.02
2018-09-03T12:29:10.587Z,27.28
2018-09-03T12:31:47.261Z,27.19
2018-09-03T12:34:25.200Z,27.29
2018-09-03T12:36:56.333Z,27.45
2018-09-03T12:39:25.830Z,27.31
2018-09-03T12:41:58.844Z,27.22
2018-09-03T12:44:31.063Z,27.19
2018-09-03T12:47:00.671Z,27.03
2018-09-03T12:49:43.204Z,27.15
2018-09-03T12:52:14.004Z,27.30
2018-09-03T12:54:44.454Z,27.42
2018-09-03T12:57:21.398Z,27.44
2018-09-03T12:59:51.100Z,27.76
2018-09-03T13:02:22.652Z,27.56
2018-09-03T13:04:52.467Z,27.23
2018-09-03T13:07:26.526Z,27.20
2018-09-03T13:09:56.450Z,27.35
2018-09-03T13:12:27.631Z,27.22
2018-09-03T13:15:00.256Z,26.87
2018-09-03T13:17:29.811Z,26.78
2018-09-03T13:20:01.334Z,26.78
2018-09-03T13:22:31.302Z,26.73
2018-09-03T13:25:02.085Z,26.82
2018-09-03T13:27:32.877Z,26.65
2018-09-03T13:30:08.011Z,26.66
2018-09-03T13:32:38.904Z,26.64
2018-09-03T13:35:11.632Z,26.93
2018-09-03T13:37:42.316Z,27.39
2018-09-03T13:40:13.820Z,27.63
2018-09-03T13:42:45.154Z,27.34
2018-09-03T13:45:17.459Z,27.35
2018-09-03T13:47:48.763Z,27.46
2018-09-03T13:50:20.802Z,27.68
2018-09-03T13:52:56.430Z,28.01
2018-09-03T13:58:12.304Z,28.03
2018-09-03T14:00:43.507Z,27.45
2018-09-03T14:03:22.711Z,27.45
2018-09-03T14:05:56.205Z,27.12
2018-09-03T14:08:35.411Z,27.05
2018-09-03T14:11:06.499Z,27.03
2018-09-03T14:13:36.816Z,26.94
2018-09-03T14:16:08.742Z,27.09
2018-09-03T14:18:39.848Z,26.95
2018-09-03T14:21:11.008Z,27.17
2018-09-03T14:23:42.951Z,27.36
2018-09-03T14:26:14.759Z,27.31
2018-09-03T14:28:51.606Z,27.44
2018-09-03T14:31:29.034Z,27.21
2018-09-03T14:33:59.677Z,26.92
2018-09-03T14:36:35.468Z,26.81
2018-09-03T14:39:09.484Z,26.59
2018-09-03T14:41:39.607Z,26.47
2018-09-03T14:44:19.594Z,26.73
2018-09-03T14:46:53.266Z,26.55
2018-09-03T14:52:04.360Z,26.06
2018-09-03T14:54:38.594Z,25.99
2018-09-03T14:57:10.991Z,25.79
2018-09-03T14:59:41.230Z,25.72
2018-09-03T15:02:32.546Z,25.63
2018-09-03T15:05:05.994Z,25.51
2018-09-03T15:07:35.338Z,25.68
2018-09-03T15:10:07.138Z,25.76
2018-09-03T15:12:43.263Z,25.67
2018-09-03T15:15:20.232Z,25.61
2018-09-03T15:17:50.371Z,25.73
2018-09-03T15:20:36.875Z,25.73
2018-09-03T15:23:06.969Z,25.70
2018-09-03T15:25:41.717Z,25.85
2018-09-03T15:28:17.501Z,25.93
2018-09-03T15:30:52.185Z,26.03
2018-09-03T15:33:23.032Z,25.99
2018-09-03T15:35:53.371Z,25.93
2018-09-03T15:40:58.569Z,25.93
2018-09-03T15:47:45.756Z,25.64
2018-09-03T15:50:15.543Z,25.56
2018-09-03T15:52:47.348Z,25.55
2018-09-03T15:55:18.414Z,25.64
2018-09-03T15:57:51.622Z,25.54
2018-09-03T16:00:21.620Z,25.51
2018-09-03T16:02:52.895Z,25.45
2018-09-03T16:05:24.167Z,25.18
2018-09-03T16:07:57.757Z,25.48
2018-09-03T16:10:29.443Z,25.43
2018-09-03T16:13:03.023Z,25.43
2018-09-03T16:15:35.575Z,25.46
2018-09-03T16:18:05.904Z,25.29
2018-09-03T16:20:36.390Z,25.15
2018-09-03T16:23:06.040Z,25.12
2018-09-03T16:25:57.777Z,25.29
2018-09-03T16:28:40.379Z,25.57
2018-09-03T16:31:13.633Z,25.59
2018-09-03T16:33:43.646Z,25.59
2018-09-03T16:36:20.466Z,25.68
2018-09-03T16:38:51.975Z,25.63
2018-09-03T16:41:25.712Z,25.45
2018-09-03T16:43:57.951Z,25.25
2018-09-03T16:46:31.138Z,25.11
2018-09-03T16:49:05.004Z,25.11
2018-09-03T16:51:36.065Z,25.08
2018-09-03T16:54:10.314Z,25.13
2018-09-03T16:59:06.053Z,25.14
2018-09-03T17:01:41.256Z,25.14
2018-09-03T17:04:11.730Z,25.19
2018-09-03T17:06:44.328Z,25.00
2018-09-03T17:09:16.452Z,24.86
2018-09-03T17:11:53.561Z,24.82
2018-09-03T17:14:31.479Z,24.73
2018-09-03T17:17:03.589Z,24.73
2018-09-03T17:22:41.313Z,24.76
2018-09-03T17:25:23.741Z,24.20
2018-09-03T17:27:59.322Z,24.74
2018-09-03T17:30:35.228Z,24.78
2018-09-03T17:33:08.599Z,24.87
2018-09-03T17:35:46.728Z,24.90
2018-09-03T17:38:18.623Z,24.80
2018-09-03T17:40:49.236Z,24.73
2018-09-03T17:43:23.440Z,24.66
2018-09-03T17:45:53.525Z,24.57
2018-09-03T17:48:26.606Z,24.48
2018-09-03T17:50:58.922Z,24.60
2018-09-03T17:53:37.607Z,24.59
2018-09-03T17:56:13.344Z,24.51
2018-09-03T17:58:44.600Z,24.42
2018-09-03T18:01:18.122Z,24.38
2018-09-03T18:03:49.159Z,24.35
2018-09-03T18:09:23.233Z,24.45
2018-09-03T18:11:58.923Z,24.60
2018-09-03T18:14:31.615Z,24.49
2018-09-03T18:17:06.296Z,24.48
2018-09-03T18:19:48.325Z,24.47
2018-09-03T18:22:32.821Z,24.45
2018-09-03T18:25:06.259Z,24.41
2018-09-03T18:27:36.896Z,24.32
2018-09-03T18:30:13.680Z,24.31
2018-09-03T18:32:43.669Z,24.44
2018-09-03T18:35:24.759Z,24.38
2018-09-03T18:38:01.047Z,24.45
2018-09-03T18:40:32.989Z,24.45
2018-09-03T18:43:19.331Z,24.46
2018-09-03T18:45:54.546Z,24.51
2018-09-03T18:48:25.337Z,24.50
2018-09-03T18:51:05.141Z,24.51
2018-09-03T18:53:38.733Z,24.52
2018-09-03T18:56:11.212Z,24.48
2018-09-03T19:01:37.682Z,24.62
2018-09-03T19:04:15.489Z,24.61
2018-09-03T19:06:45.980Z,24.50
2018-09-03T19:09:20.999Z,24.44
2018-09-03T19:11:52.019Z,24.52
2018-09-03T19:17:08.636Z,24.52
2018-09-03T19:19:46.705Z,24.54
2018-09-03T19:22:18.146Z,24.60
2018-09-03T19:25:02.279Z,24.59
2018-09-03T19:27:35.694Z,24.63
2018-09-03T19:30:23.479Z,24.70
2018-09-03T19:33:00.257Z,24.78
2018-09-03T19:35:31.337Z,24.79
2018-09-03T19:38:03.211Z,24.81
2018-09-03T19:40:33.434Z,24.86
2018-09-03T19:43:06.374Z,24.88
2018-09-03T19:45:38.800Z,24.89
2018-09-03T19:48:13.672Z,24.92
2018-09-03T19:50:46.037Z,25.00
2018-09-03T19:53:19.063Z,25.04
2018-09-03T19:56:02.479Z,25.07
2018-09-03T19:58:47.652Z,25.06
2018-09-03T20:01:22.156Z,24.94
2018-09-03T20:03:56.110Z,24.85
2018-09-03T20:06:27.578Z,24.80
2018-09-03T20:08:58.294Z,24.78
2018-09-03T20:11:31.883Z,24.78
2018-09-03T20:16:59.607Z,24.67
2018-09-03T20:22:22.431Z,24.62
2018-09-03T20:24:52.427Z,24.66
2018-09-03T20:27:24.387Z,24.69
2018-09-03T20:29:56.647Z,24.71
2018-09-03T20:32:31.768Z,24.21
2018-09-03T20:35:12.427Z,24.83
2018-09-03T20:37:53.267Z,24.77
2018-09-03T20:40:27.663Z,24.70
2018-09-03T20:43:05.029Z,24.66
2018-09-03T20:45:36.403Z,24.60
2018-09-03T20:48:08.699Z,24.57
2018-09-03T20:50:45.656Z,24.54
2018-09-03T20:53:15.900Z,24.68
2018-09-03T20:55:50.067Z,24.72
2018-09-03T20:58:19.539Z,24.73
2018-09-03T21:00:51.082Z,24.67
2018-09-03T21:03:21.695Z,24.63
2018-09-03T21:05:53.501Z,24.62
2018-09-03T21:08:24.594Z,24.61
2018-09-03T21:10:57.757Z,24.61
2018-09-03T21:13:28.220Z,24.51
2018-09-03T21:16:00.689Z,24.50
2018-09-03T21:18:32.800Z,24.44
2018-09-03T21:21:02.427Z,24.37
2018-09-03T21:23:33.508Z,24.28
2018-09-03T21:26:10.422Z,24.31
2018-09-03T21:28:42.516Z,24.28
2018-09-03T21:31:13.087Z,24.23
2018-09-03T21:33:43.339Z,24.09
2018-09-03T21:36:13.103Z,24.04
2018-09-03T21:38:43.184Z,24.08
2018-09-03T21:41:13.861Z,24.00
2018-09-03T21:43:44.205Z,23.89
2018-09-03T21:46:15.147Z,23.88
2018-09-03T21:48:45.523Z,23.81
2018-09-03T21:51:20.643Z,23.71
2018-09-03T21:53:50.339Z,23.69
2018-09-03T21:56:21.343Z,23.72
2018-09-03T21:58:51.189Z,23.69
2018-09-03T22:01:22.252Z,23.81
2018-09-03T22:03:52.556Z,23.83
2018-09-03T22:06:24.966Z,23.88
2018-09-03T22:08:54.551Z,23.88
2018-09-03T22:11:24.397Z,23.88
2018-09-03T22:13:53.954Z,23.77
2018-09-03T22:16:28.705Z,23.67
2018-09-03T22:18:58.461Z,23.61
2018-09-03T22:21:31.062Z,23.68
2018-09-03T22:24:04.567Z,23.74
2018-09-03T22:26:35.046Z,23.75
2018-09-03T22:29:04.604Z,23.69
2018-09-03T22:31:36.308Z,23.10
2018-09-03T22:34:09.561Z,23.64
2018-09-03T22:36:39.800Z,23.57
2018-09-03T22:39:10.430Z,23.46
2018-09-03T22:41:40.174Z,23.43
2018-09-03T22:44:12.707Z,23.40
2018-09-03T22:46:45.348Z,23.44
2018-09-03T22:49:14.962Z,23.47
2018-09-03T22:51:44.361Z,23.38
2018-09-03T22:54:16.373Z,23.40
2018-09-03T22:56:45.918Z,23.44
2018-09-03T22:59:15.149Z,23.47
2018-09-03T23:01:45.489Z,23.47
2018-09-03T23:04:16.373Z,23.42
2018-09-03T23:06:46.131Z,23.29
2018-09-03T23:09:15.887Z,23.32
2018-09-03T23:11:45.359Z,23.32
2018-09-03T23:14:14.718Z,23.31
2018-09-03T23:16:44.867Z,22.99
2018-09-03T23:19:16.070Z,23.27
2018-09-03T23:21:47.542Z,23.24
2018-09-03T23:24:18.712Z,23.14
2018-09-03T23:26:49.653Z,23.11
2018-09-03T23:29:20.600Z,23.05
2018-09-03T23:31:50.321Z,23.03
2018-09-03T23:34:19.683Z,22.99
2018-09-03T23:36:49.064Z,22.96
2018-09-03T23:39:18.651Z,22.97
2018-09-03T23:41:48.701Z,22.94
2018-09-03T23:44:19.627Z,22.88
2018-09-03T23:46:49.462Z,22.81
2018-09-03T23:49:19.652Z,22.79
2018-09-03T23:51:49.386Z,22.76
2018-09-03T23:54:18.971Z,22.74
2018-09-03T23:56:49.597Z,22.71
2018-09-03T23:59:20.668Z,22.68
